Time;durP1;ratioP1;P1;durP2;ratioP2;P2;SDS_P1;SDS_P2;PMS_P1;PMS_P2;Temp;Humidity;BMP_temperature;BMP_pressure;BME280_temperature;BME280_humidity;BME280_pressure;Samples;Min_cycle;Max_cycle;Signal;HPM_P1;HPM_P2
2023/07/02 00:01:59;;;;;;;3.78;3.47;;;;;;;;;;4152755;28;20388;-57
2023/07/02 00:04:19;;;;;;;4.00;3.78;;;;;;;;;;4152716;28;20371;-57
2023/07/02 00:06:40;;;;;;;3.33;3.13;;;;;;;;;;4136165;28;20041;-57
2023/07/02 00:09:00;;;;;;;4.00;3.15;;;;;;;;;;4150733;28;20302;-57
2023/07/02 00:11:20;;;;;;;4.10;3.72;;;;;;;;;;4150932;28;20049;-57
2023/07/02 00:13:40;;;;;;;3.92;3.78;;;;;;;;;;4151872;28;20080;-57
2023/07/02 00:16:00;;;;;;;6.85;4.53;;;;;;;;;;4147010;28;20365;-58
2023/07/02 00:18:21;;;;;;;4.53;3.38;;;;;;;;;;4154341;28;20237;-58
2023/07/02 00:20:41;;;;;;;4.43;4.05;;;;;;;;;;4154349;28;20041;-58
2023/07/02 00:23:02;;;;;;;3.97;3.63;;;;;;;;;;4152886;28;20052;-58
2023/07/02 00:25:22;;;;;;;4.32;4.03;;;;;;;;;;4152528;28;20337;-58
2023/07/02 00:27:42;;;;;;;4.45;4.35;;;;;;;;;;4150838;28;20094;-58
2023/07/02 00:30:03;;;;;;;3.47;3.38;;;;;;;;;;4149307;28;20100;-58
2023/07/02 00:32:23;;;;;;;4.43;4.10;;;;;;;;;;4147734;28;20106;-58
2023/07/02 00:34:43;;;;;;;3.03;2.83;;;;;;;;;;4149803;28;20420;-57
2023/07/02 00:37:03;;;;;;;4.90;3.88;;;;;;;;;;4152920;28;20053;-58
2023/07/02 00:39:24;;;;;;;4.10;3.80;;;;;;;;;;4151527;28;20103;-57
2023/07/02 00:41:48;;;;;;;3.97;3.60;;;;;;;;;;4153118;28;20233;-57
2023/07/02 00:44:09;;;;;;;9.13;4.65;;;;;;;;;;4153072;28;20056;-58
2023/07/02 00:46:31;;;;;;;3.67;3.55;;;;;;;;;;4149764;28;20122;-58
2023/07/02 00:48:52;;;;;;;4.05;3.95;;;;;;;;;;4149760;28;20049;-58
2023/07/02 00:51:15;;;;;;;4.85;4.18;;;;;;;;;;4150058;28;20060;-58
2023/07/02 00:53:35;;;;;;;3.17;3.00;;;;;;;;;;4147961;28;20045;-57
2023/07/02 00:55:56;;;;;;;4.43;4.13;;;;;;;;;;4148579;28;20045;-58
2023/07/02 00:58:16;;;;;;;6.70;4.43;;;;;;;;;;4151072;28;20049;-57
2023/07/02 01:00:37;;;;;;;6.18;4.25;;;;;;;;;;4173221;22;20036;-89
2023/07/02 01:02:58;;;;;;;3.70;3.50;;;;;;;;;;4147957;28;20057;-92
2023/07/02 01:05:21;;;;;;;6.55;4.05;;;;;;;;;;4152627;28;20080;-93
2023/07/02 01:07:43;;;;;;;;;;;;;;;;;;4156977;28;20077;-93
2023/07/02 01:10:03;;;;;;;7.43;3.88;;;;;;;;;;4164615;28;19923;-93
2023/07/02 01:12:24;;;;;;;3.88;3.67;;;;;;;;;;4163773;28;20325;-92
2023/07/02 01:14:46;;;;;;;5.07;4.68;;;;;;;;;;4153262;28;20245;-91
2023/07/02 01:17:07;;;;;;;4.07;3.78;;;;;;;;;;4158688;28;20280;-93
2023/07/02 01:19:53;;;;;;;4.47;4.30;;;;;;;;;;4150928;28;20383;-93
2023/07/02 01:22:14;;;;;;;6.53;4.35;;;;;;;;;;4155721;28;20069;-93
2023/07/02 01:24:36;;;;;;;4.30;4.10;;;;;;;;;;4147184;28;20097;-92
2023/07/02 01:27:00;;;;;;;3.97;3.78;;;;;;;;;;4163939;28;20048;-92
2023/07/02 01:29:21;;;;;;;5.22;4.40;;;;;;;;;;4155716;28;20080;-92
2023/07/02 01:31:41;;;;;;;5.78;4.13;;;;;;;;;;4155967;28;20367;-93
2023/07/02 01:34:04;;;;;;;3.88;3.22;;;;;;;;;;4154330;28;20083;-91
2023/07/02 01:36:25;;;;;;;4.82;4.63;;;;;;;;;;4146352;28;20118;-93
2023/07/02 01:38:45;;;;;;;4.32;4.15;;;;;;;;;;4134405;28;20395;-92
2023/07/02 01:41:05;;;;;;;4.15;4.05;;;;;;;;;;4141946;28;20046;-92
2023/07/02 01:43:25;;;;;;;4.90;4.63;;;;;;;;;;4162595;28;20049;-92
2023/07/02 01:45:46;;;;;;;4.32;4.13;;;;;;;;;;4141889;28;20146;-92
2023/07/02 01:48:06;;;;;;;4.30;3.83;;;;;;;;;;4161937;28;20056;-93
2023/07/02 01:50:27;;;;;;;6.40;4.35;;;;;;;;;;4159415;28;20061;-93
2023/07/02 01:52:47;;;;;;;3.90;3.58;;;;;;;;;;4148347;28;20539;-93
2023/07/02 01:55:08;;;;;;;4.60;4.40;;;;;;;;;;4155001;28;20096;-93
2023/07/02 01:57:30;;;;;;;5.53;5.10;;;;;;;;;;4163934;28;20395;-92
2023/07/02 01:59:50;;;;;;;6.38;5.78;;;;;;;;;;4159736;28;20057;-88
2023/07/02 02:02:10;;;;;;;6.57;6.07;;;;;;;;;;4156610;28;20387;-88
2023/07/02 02:04:32;;;;;;;5.47;4.97;;;;;;;;;;4159815;28;20081;-88
2023/07/02 02:06:52;;;;;;;6.13;5.65;;;;;;;;;;4148797;28;20061;-88
2023/07/02 02:09:12;;;;;;;5.32;4.80;;;;;;;;;;4157897;28;20088;-91
2023/07/02 02:11:33;;;;;;;5.63;5.30;;;;;;;;;;4155463;28;20107;-91
2023/07/02 02:13:53;;;;;;;5.60;5.15;;;;;;;;;;4157175;28;20076;-91
2023/07/02 02:16:14;;;;;;;6.47;6.15;;;;;;;;;;4155966;28;20084;-91
2023/07/02 02:18:34;;;;;;;5.60;5.30;;;;;;;;;;4157786;28;20088;-90
2023/07/02 02:20:55;;;;;;;5.85;5.40;;;;;;;;;;4156341;28;20057;-91
2023/07/02 02:23:15;;;;;;;9.18;4.97;;;;;;;;;;4161561;28;20161;-92
2023/07/02 02:25:36;;;;;;;10.15;5.20;;;;;;;;;;4153496;28;20045;-92
2023/07/02 02:27:57;;;;;;;5.88;5.13;;;;;;;;;;4156331;28;20057;-93
2023/07/02 02:30:17;;;;;;;7.03;4.75;;;;;;;;;;4158713;28;20083;-93
2023/07/02 02:32:38;;;;;;;6.13;5.82;;;;;;;;;;4147198;28;20096;-93
2023/07/02 02:34:58;;;;;;;4.82;4.55;;;;;;;;;;4158035;28;20093;-93
2023/07/02 02:37:19;;;;;;;5.85;5.32;;;;;;;;;;4155107;28;20069;-91
2023/07/02 02:39:39;;;;;;;4.68;4.13;;;;;;;;;;4157056;28;20049;-93
2023/07/02 02:42:00;;;;;;;5.90;4.40;;;;;;;;;;4157073;28;20144;-93
2023/07/02 02:44:20;;;;;;;5.20;4.88;;;;;;;;;;4153469;28;20045;-92
2023/07/02 02:46:40;;;;;;;5.47;5.18;;;;;;;;;;4159708;28;20084;-92
2023/07/02 02:49:01;;;;;;;6.22;5.70;;;;;;;;;;4161185;28;20367;-91
2023/07/02 02:51:21;;;;;;;5.72;5.40;;;;;;;;;;4157178;28;20357;-92
2023/07/02 02:53:42;;;;;;;4.75;4.55;;;;;;;;;;4154886;28;20120;-93
2023/07/02 02:56:02;;;;;;;5.57;5.35;;;;;;;;;;4141220;28;20069;-91
2023/07/02 02:58:22;;;;;;;4.70;4.60;;;;;;;;;;4137941;28;20097;-92
2023/07/02 03:00:45;;;;;;;5.20;4.85;;;;;;;;;;4151570;28;20110;-92
2023/07/02 03:03:06;;;;;;;5.90;5.53;;;;;;;;;;4158459;28;20068;-91
2023/07/02 03:05:29;;;;;;;4.65;4.38;;;;;;;;;;4165385;28;20056;-93
2023/07/02 03:07:51;;;;;;;8.70;4.78;;;;;;;;;;4158828;28;20048;-93
2023/07/02 03:10:11;;;;;;;4.23;4.03;;;;;;;;;;4157505;28;20065;-93
2023/07/02 03:12:32;;;;;;;4.22;3.97;;;;;;;;;;4156212;28;20052;-91
2023/07/02 03:14:54;;;;;;;5.07;4.70;;;;;;;;;;4156481;28;20056;-92
2023/07/02 03:17:14;;;;;;;5.00;4.75;;;;;;;;;;4162891;28;20056;-92
2023/07/02 03:19:34;;;;;;;4.82;4.40;;;;;;;;;;4162359;28;20085;-92
2023/07/02 03:21:55;;;;;;;6.95;6.03;;;;;;;;;;4159209;28;20378;-92
2023/07/02 03:24:16;;;;;;;5.03;4.63;;;;;;;;;;4161690;28;20430;-92
2023/07/02 03:26:36;;;;;;;4.85;4.65;;;;;;;;;;4162004;28;20041;-92
2023/07/02 03:28:56;;;;;;;4.97;4.63;;;;;;;;;;4158215;28;20692;-91
2023/07/02 03:31:16;;;;;;;4.75;4.50;;;;;;;;;;4156536;28;20060;-91
2023/07/02 03:33:36;;;;;;;4.65;4.30;;;;;;;;;;4157545;28;20611;-90
2023/07/02 03:35:56;;;;;;;4.43;4.22;;;;;;;;;;4160698;28;20263;-90
2023/07/02 03:38:17;;;;;;;4.80;4.35;;;;;;;;;;4158874;28;20053;-91
2023/07/02 03:40:37;;;;;;;5.13;4.45;;;;;;;;;;4159163;28;20096;-91
2023/07/02 03:42:59;;;;;;;5.03;4.63;;;;;;;;;;4165810;28;20061;-90
2023/07/02 03:45:20;;;;;;;4.90;4.53;;;;;;;;;;4156582;28;20055;-91
2023/07/02 03:47:42;;;;;;;4.30;4.10;;;;;;;;;;4160457;28;20233;-90
2023/07/02 03:50:02;;;;;;;5.20;5.00;;;;;;;;;;4159207;28;20061;-90
2023/07/02 03:52:23;;;;;;;5.85;5.28;;;;;;;;;;4158968;28;20097;-90
2023/07/02 03:54:43;;;;;;;6.20;5.88;;;;;;;;;;4157384;28;20431;-91
2023/07/02 03:57:04;;;;;;;7.40;5.15;;;;;;;;;;4158639;28;20164;-90
2023/07/02 03:59:24;;;;;;;6.00;5.55;;;;;;;;;;4158591;28;20057;-91
2023/07/02 04:01:44;;;;;;;6.32;5.63;;;;;;;;;;4161231;28;20064;-90
2023/07/02 04:04:06;;;;;;;7.75;5.38;;;;;;;;;;4160452;28;20075;-90
2023/07/02 04:06:27;;;;;;;;;;;;;;;;;;4159283;28;20057;-89
2023/07/02 04:08:52;;;;;;;4.63;4.28;;;;;;;;;;4147559;28;20004;-91
2023/07/02 04:11:13;;;;;;;5.93;5.40;;;;;;;;;;4147232;28;20395;-91
2023/07/02 04:13:34;;;;;;;5.88;5.50;;;;;;;;;;4156854;28;20092;-90
2023/07/02 04:15:54;;;;;;;5.63;5.35;;;;;;;;;;4163227;28;20052;-91
2023/07/02 04:18:16;;;;;;;4.68;4.38;;;;;;;;;;4158098;28;20113;-91
2023/07/02 04:20:40;;;;;;;4.85;4.43;;;;;;;;;;4165752;28;20064;-90
2023/07/02 04:23:01;;;;;;;6.57;5.90;;;;;;;;;;4160978;28;20048;-90
2023/07/02 04:25:22;;;;;;;4.78;4.63;;;;;;;;;;4158010;28;20044;-91
2023/07/02 04:28:04;;;;;;;5.47;5.07;;;;;;;;;;4157876;28;20080;-91
2023/07/02 04:30:25;;;;;;;4.93;4.38;;;;;;;;;;4143527;28;20130;-90
2023/07/02 04:32:46;;;;;;;4.95;4.65;;;;;;;;;;4157788;28;20368;-91
2023/07/02 04:35:07;;;;;;;6.40;5.75;;;;;;;;;;4167207;28;20049;-91
2023/07/02 04:37:28;;;;;;;7.70;7.00;;;;;;;;;;4163998;28;20048;-90
2023/07/02 04:39:48;;;;;;;5.25;4.82;;;;;;;;;;4156697;28;20056;-91
2023/07/02 04:42:09;;;;;;;4.82;4.65;;;;;;;;;;4158985;28;20286;-91
2023/07/02 04:44:30;;;;;;;4.90;4.50;;;;;;;;;;4157722;28;20045;-91
2023/07/02 04:46:50;;;;;;;4.93;4.63;;;;;;;;;;4158073;28;20830;-91
2023/07/02 04:49:10;;;;;;;4.57;4.18;;;;;;;;;;4158100;28;20272;-91
2023/07/02 04:51:31;;;;;;;5.40;4.85;;;;;;;;;;4165614;28;20087;-91
2023/07/02 04:53:52;;;;;;;6.40;3.90;;;;;;;;;;4161558;28;20096;-91
2023/07/02 04:56:12;;;;;;;4.47;4.18;;;;;;;;;;4157154;28;20053;-90
2023/07/02 04:58:33;;;;;;;4.30;3.90;;;;;;;;;;4160535;28;20076;-91
2023/07/02 05:00:54;;;;;;;4.60;4.35;;;;;;;;;;4141637;28;20134;-91
2023/07/02 05:03:14;;;;;;;4.07;3.88;;;;;;;;;;4157095;28;20048;-91
2023/07/02 05:05:35;;;;;;;4.65;3.78;;;;;;;;;;4160964;28;20091;-91
2023/07/02 05:07:57;;;;;;;7.13;5.45;;;;;;;;;;4162957;28;20060;-90
2023/07/02 05:10:17;;;;;;;5.03;4.55;;;;;;;;;;4157393;28;20036;-91
2023/07/02 05:12:38;;;;;;;4.82;4.18;;;;;;;;;;4161731;28;20100;-91
2023/07/02 05:14:58;;;;;;;5.20;4.93;;;;;;;;;;4158161;28;20061;-90
2023/07/02 05:17:18;;;;;;;5.85;5.65;;;;;;;;;;4154195;28;20048;-91
2023/07/02 05:19:40;;;;;;;5.47;5.20;;;;;;;;;;4154972;28;20088;-91
2023/07/02 05:22:01;;;;;;;4.75;4.50;;;;;;;;;;4156372;28;20322;-91
2023/07/02 05:24:22;;;;;;;4.63;4.43;;;;;;;;;;4159581;28;20125;-91
2023/07/02 05:26:42;;;;;;;6.15;5.82;;;;;;;;;;4155568;28;20041;-91
2023/07/02 05:29:05;;;;;;;6.72;5.38;;;;;;;;;;4155126;28;20049;-91
2023/07/02 05:31:25;;;;;;;5.38;5.10;;;;;;;;;;4157186;28;20056;-91
2023/07/02 05:33:46;;;;;;;5.53;5.22;;;;;;;;;;4143704;28;20045;-91
2023/07/02 05:36:06;;;;;;;5.43;5.18;;;;;;;;;;4156528;28;20100;-91
2023/07/02 05:38:27;;;;;;;6.65;6.15;;;;;;;;;;4152521;28;20110;-91
2023/07/02 05:40:47;;;;;;;6.80;6.20;;;;;;;;;;4159787;28;20096;-91
2023/07/02 05:43:08;;;;;;;5.70;5.30;;;;;;;;;;4157545;28;20376;-91
2023/07/02 05:45:28;;;;;;;5.50;5.18;;;;;;;;;;4160565;28;20073;-91
2023/07/02 05:47:50;;;;;;;9.35;5.85;;;;;;;;;;4155390;28;20333;-91
2023/07/02 05:50:10;;;;;;;6.55;6.10;;;;;;;;;;4146823;28;20085;-88
2023/07/02 05:52:30;;;;;;;6.45;6.15;;;;;;;;;;4155668;28;20255;-88
2023/07/02 05:54:51;;;;;;;7.32;6.93;;;;;;;;;;4163671;28;20117;-88
2023/07/02 05:57:11;;;;;;;6.07;5.68;;;;;;;;;;4165502;28;20092;-88
2023/07/02 05:59:35;;;;;;;7.03;6.32;;;;;;;;;;4152851;28;20065;-88
2023/07/02 06:01:55;;;;;;;7.82;6.60;;;;;;;;;;4130884;28;20049;-88
2023/07/02 06:04:15;;;;;;;12.80;6.32;;;;;;;;;;4155114;28;20056;-88
2023/07/02 06:06:36;;;;;;;10.90;6.43;;;;;;;;;;4167629;28;20129;-88
2023/07/02 06:08:59;;;;;;;7.53;6.82;;;;;;;;;;4158579;28;20117;-88
2023/07/02 06:11:19;;;;;;;4.93;4.72;;;;;;;;;;4159163;28;20645;-88
2023/07/02 06:13:41;;;;;;;8.07;6.13;;;;;;;;;;4156427;28;20057;-88
2023/07/02 06:16:02;;;;;;;6.68;6.25;;;;;;;;;;4169423;28;20047;-89
2023/07/02 06:18:24;;;;;;;7.07;6.40;;;;;;;;;;4170464;28;20084;-88
2023/07/02 06:20:46;;;;;;;6.28;5.90;;;;;;;;;;4155152;28;20220;-88
2023/07/02 06:23:07;;;;;;;8.95;5.75;;;;;;;;;;4157390;28;20080;-88
2023/07/02 06:25:27;;;;;;;6.55;6.25;;;;;;;;;;4158452;28;20045;-88
2023/07/02 06:27:48;;;;;;;6.75;6.25;;;;;;;;;;4158398;28;20085;-88
2023/07/02 06:30:09;;;;;;;5.15;4.88;;;;;;;;;;4158341;28;20049;-88
2023/07/02 06:32:29;;;;;;;5.45;5.13;;;;;;;;;;4158683;28;20139;-89
2023/07/02 06:34:49;;;;;;;6.13;5.90;;;;;;;;;;4153370;28;20080;-88
2023/07/02 06:37:10;;;;;;;6.25;5.72;;;;;;;;;;4147186;28;20057;-88
2023/07/02 06:39:31;;;;;;;6.00;5.88;;;;;;;;;;4159908;28;20091;-88
2023/07/02 06:41:51;;;;;;;5.00;4.80;;;;;;;;;;4142264;28;20122;-88
2023/07/02 06:44:12;;;;;;;4.78;4.55;;;;;;;;;;4162852;28;20053;-88
2023/07/02 06:46:32;;;;;;;7.18;5.05;;;;;;;;;;4167977;28;20053;-88
2023/07/02 06:48:55;;;;;;;4.63;4.32;;;;;;;;;;4163723;28;20049;-88
2023/07/02 06:51:16;;;;;;;5.85;5.30;;;;;;;;;;4158612;28;20052;-88
2023/07/02 06:53:37;;;;;;;4.05;3.85;;;;;;;;;;4163452;28;20052;-88
2023/07/02 06:55:57;;;;;;;3.85;3.75;;;;;;;;;;4159195;28;20052;-88
2023/07/02 06:58:20;;;;;;;4.28;3.88;;;;;;;;;;4161758;28;20048;-88
2023/07/02 07:00:40;;;;;;;3.95;3.65;;;;;;;;;;4160020;28;20044;-86
2023/07/02 07:03:04;;;;;;;4.15;4.05;;;;;;;;;;4157596;28;20248;-86
2023/07/02 07:05:24;;;;;;;4.40;4.20;;;;;;;;;;4158577;28;20106;-85
2023/07/02 07:07:46;;;;;;;5.00;4.70;;;;;;;;;;4157348;28;20142;-86
2023/07/02 07:10:07;;;;;;;4.72;4.53;;;;;;;;;;4143925;28;20048;-85
2023/07/02 07:12:27;;;;;;;4.75;4.45;;;;;;;;;;4157596;28;20065;-87
2023/07/02 07:14:47;;;;;;;5.07;4.68;;;;;;;;;;4139162;28;20256;-85
2023/07/02 07:17:07;;;;;;;4.60;4.40;;;;;;;;;;4155378;28;20252;-85
2023/07/02 07:19:32;;;;;;;5.88;5.47;;;;;;;;;;4152628;28;20048;-85
2023/07/02 07:21:52;;;;;;;5.32;4.70;;;;;;;;;;4142569;28;20085;-85
2023/07/02 07:24:13;;;;;;;4.13;4.03;;;;;;;;;;4160092;28;20111;-86
2023/07/02 07:26:33;;;;;;;4.55;4.20;;;;;;;;;;4158741;28;20257;-85
2023/07/02 07:28:57;;;;;;;4.10;3.80;;;;;;;;;;4157707;28;20092;-86
2023/07/02 07:31:18;;;;;;;4.47;4.18;;;;;;;;;;4163769;28;20064;-86
2023/07/02 07:33:39;;;;;;;4.53;4.30;;;;;;;;;;4155265;28;20070;-86
2023/07/02 07:36:00;;;;;;;3.67;3.53;;;;;;;;;;4154563;28;20060;-86
2023/07/02 07:38:22;;;;;;;4.43;4.32;;;;;;;;;;4165002;28;20056;-83
2023/07/02 07:40:42;;;;;;;;;;;;;;;;;;4162612;28;20072;-84
2023/07/02 07:43:08;;;;;;;3.33;3.13;;;;;;;;;;4159081;28;19933;-84
2023/07/02 07:45:28;;;;;;;3.25;3.15;;;;;;;;;;4155884;28;20088;-84
2023/07/02 07:47:50;;;;;;;3.55;3.35;;;;;;;;;;4143481;28;20153;-85
2023/07/02 07:50:10;;;;;;;3.65;3.35;;;;;;;;;;4142390;28;20457;-85
2023/07/02 07:52:30;;;;;;;3.70;3.60;;;;;;;;;;4156308;28;20096;-84
2023/07/02 07:54:51;;;;;;;2.45;2.25;;;;;;;;;;4166001;28;20121;-84
2023/07/02 07:57:11;;;;;;;3.47;3.28;;;;;;;;;;4156534;28;20144;-84
2023/07/02 07:59:31;;;;;;;2.75;2.65;;;;;;;;;;4157024;28;20268;-85
2023/07/02 08:01:51;;;;;;;2.40;2.30;;;;;;;;;;4161173;28;20363;-85
2023/07/02 08:04:13;;;;;;;3.10;3.00;;;;;;;;;;4157038;28;20053;-84
2023/07/02 08:06:34;;;;;;;3.25;3.05;;;;;;;;;;4169675;28;20105;-85
2023/07/02 08:08:55;;;;;;;2.30;2.20;;;;;;;;;;4160960;28;20048;-84
2023/07/02 08:11:15;;;;;;;3.03;2.92;;;;;;;;;;4157026;28;20077;-87
2023/07/02 08:13:37;;;;;;;3.58;3.30;;;;;;;;;;4156537;28;20048;-87
2023/07/02 08:15:57;;;;;;;2.42;2.33;;;;;;;;;;4157453;28;20371;-87
2023/07/02 08:18:17;;;;;;;2.20;2.10;;;;;;;;;;4162039;28;20088;-88
2023/07/02 08:20:38;;;;;;;2.33;2.25;;;;;;;;;;4160463;28;20091;-88
2023/07/02 08:22:59;;;;;;;1.73;1.63;;;;;;;;;;4147220;28;20097;-87
2023/07/02 08:25:21;;;;;;;2.17;2.03;;;;;;;;;;4162231;28;20096;-87
2023/07/02 08:27:41;;;;;;;2.17;2.08;;;;;;;;;;4155367;28;20313;-87
2023/07/02 08:30:02;;;;;;;2.10;1.80;;;;;;;;;;4161529;28;20256;-87
2023/07/02 08:32:22;;;;;;;1.65;1.65;;;;;;;;;;4149081;28;20407;-87
2023/07/02 08:34:42;;;;;;;2.00;1.90;;;;;;;;;;4155049;28;20060;-87
2023/07/02 08:37:03;;;;;;;1.85;1.75;;;;;;;;;;4160696;28;20080;-87
2023/07/02 08:39:24;;;;;;;2.33;2.13;;;;;;;;;;4144823;28;20053;-87
2023/07/02 08:41:48;;;;;;;3.05;1.90;;;;;;;;;;4160791;28;20225;-87
2023/07/02 08:44:09;;;;;;;2.35;2.15;;;;;;;;;;4166928;28;20083;-87
2023/07/02 08:46:30;;;;;;;1.80;1.40;;;;;;;;;;4166739;28;20119;-87
2023/07/02 08:48:50;;;;;;;1.95;1.85;;;;;;;;;;4164822;28;20048;-87
2023/07/02 08:51:10;;;;;;;2.10;2.00;;;;;;;;;;4158825;28;20229;-89
2023/07/02 08:53:33;;;;;;;2.75;1.95;;;;;;;;;;4147653;28;20380;-88
2023/07/02 08:55:53;;;;;;;1.50;1.40;;;;;;;;;;4156107;28;20065;-88
2023/07/02 08:58:15;;;;;;;1.52;1.48;;;;;;;;;;4158787;28;20048;-87
2023/07/02 09:00:36;;;;;;;1.60;1.33;;;;;;;;;;4158066;28;20072;-86
2023/07/02 09:02:57;;;;;;;1.90;1.75;;;;;;;;;;4166982;28;20079;-87
2023/07/02 09:05:21;;;;;;;1.45;1.45;;;;;;;;;;4156355;28;20238;-89
2023/07/02 09:07:52;;;;;;;3.17;1.45;;;;;;;;;;4141721;28;20113;-89
2023/07/02 09:10:30;;;;;;;2.80;1.55;;;;;;;;;;4149690;28;20049;-88
2023/07/02 09:13:02;;;;;;;2.70;1.23;;;;;;;;;;4160737;28;20114;-88
2023/07/02 09:15:23;;;;;;;1.58;1.20;;;;;;;;;;4154241;28;20178;-89
2023/07/02 09:17:44;;;;;;;1.35;1.25;;;;;;;;;;4155996;28;20322;-88
2023/07/02 09:20:07;;;;;;;1.33;1.33;;;;;;;;;;4156311;28;20053;-92
2023/07/02 09:22:28;;;;;;;2.35;1.15;;;;;;;;;;4161885;28;20283;-92
2023/07/02 09:24:53;;;;;;;5.40;1.10;;;;;;;;;;4148272;28;20077;-91
2023/07/02 09:27:14;;;;;;;1.92;1.80;;;;;;;;;;4163999;28;20060;-92
2023/07/02 09:29:34;;;;;;;1.85;1.73;;;;;;;;;;4156162;28;20088;-91
2023/07/02 09:31:56;;;;;;;1.52;1.15;;;;;;;;;;4153840;28;20056;-91
2023/07/02 09:34:20;;;;;;;1.58;1.45;;;;;;;;;;4155912;28;20052;-91
2023/07/02 09:36:41;;;;;;;1.33;1.33;;;;;;;;;;4159026;28;20112;-92
2023/07/02 09:39:01;;;;;;;1.10;1.10;;;;;;;;;;4158222;28;20080;-92
2023/07/02 09:41:21;;;;;;;1.77;1.20;;;;;;;;;;4157153;28;20040;-92
2023/07/02 09:43:42;;;;;;;1.20;1.20;;;;;;;;;;4155457;28;20049;-91
2023/07/02 09:46:02;;;;;;;1.30;1.30;;;;;;;;;;4158074;28;20312;-91
2023/07/02 09:48:28;;;;;;;2.80;1.27;;;;;;;;;;4162617;28;20068;-91
2023/07/02 09:50:49;;;;;;;1.10;1.10;;;;;;;;;;4165323;28;20557;-91
2023/07/02 09:53:11;;;;;;;1.20;1.10;;;;;;;;;;4158346;28;20053;-90
2023/07/02 09:55:31;;;;;;;1.88;1.13;;;;;;;;;;4146206;28;20105;-90
2023/07/02 09:57:54;;;;;;;1.10;1.10;;;;;;;;;;4159391;28;20053;-91
2023/07/02 10:00:14;;;;;;;;;;;;;;;;;;4155139;28;20429;-91
2023/07/02 10:02:35;;;;;;;2.25;1.20;;;;;;;;;;4145815;28;20012;-90
2023/07/02 10:05:02;;;;;;;1.20;1.20;;;;;;;;;;4164568;28;20060;-91
2023/07/02 10:07:29;;;;;;;1.10;1.10;;;;;;;;;;4158797;28;20308;-92
2023/07/02 10:09:51;;;;;;;1.17;1.10;;;;;;;;;;4164123;28;20119;-90
2023/07/02 10:12:18;;;;;;;1.67;1.45;;;;;;;;;;4159969;28;20076;-90
2023/07/02 10:14:43;;;;;;;1.60;1.48;;;;;;;;;;4158354;28;20057;-81
2023/07/02 10:17:04;;;;;;;1.98;1.08;;;;;;;;;;4158660;28;20083;-82
2023/07/02 10:19:24;;;;;;;2.15;1.10;;;;;;;;;;4159586;28;20064;-82
2023/07/02 10:21:50;;;;;;;1.73;1.15;;;;;;;;;;4163499;28;20368;-82
2023/07/02 10:24:11;;;;;;;1.20;1.05;;;;;;;;;;4164798;28;20049;-82
2023/07/02 10:26:31;;;;;;;1.73;1.15;;;;;;;;;;4159430;28;20237;-82
2023/07/02 10:28:59;;;;;;;0.90;0.90;;;;;;;;;;4160244;28;20080;-81
2023/07/02 10:31:22;;;;;;;0.90;0.90;;;;;;;;;;4159566;28;20057;-78
2023/07/02 10:33:44;;;;;;;0.93;0.90;;;;;;;;;;4158925;28;20092;-77
2023/07/02 10:36:04;;;;;;;8.95;1.23;;;;;;;;;;4159212;28;20048;-77
2023/07/02 10:38:25;;;;;;;1.35;1.35;;;;;;;;;;4157155;28;20049;-78
2023/07/02 10:40:46;;;;;;;1.27;1.23;;;;;;;;;;4157304;28;20445;-78
2023/07/02 10:43:07;;;;;;;1.00;1.00;;;;;;;;;;4158011;28;20068;-78
2023/07/02 10:45:34;;;;;;;1.30;1.30;;;;;;;;;;4157640;28;20379;-77
2023/07/02 10:47:55;;;;;;;1.13;1.00;;;;;;;;;;4156632;28;20061;-77
2023/07/02 10:50:19;;;;;;;1.95;0.95;;;;;;;;;;4155889;28;20080;-77
2023/07/02 10:52:40;;;;;;;1.10;1.02;;;;;;;;;;4156101;28;20245;-77
2023/07/02 10:55:00;;;;;;;1.10;1.10;;;;;;;;;;4169894;28;20044;-77
2023/07/02 10:57:20;;;;;;;1.00;0.90;;;;;;;;;;4168185;28;20390;-77
2023/07/02 10:59:41;;;;;;;2.38;1.00;;;;;;;;;;4165601;28;20079;-77
2023/07/02 11:02:03;;;;;;;0.90;0.90;;;;;;;;;;4161677;28;20045;-78
2023/07/02 11:04:24;;;;;;;0.90;0.90;;;;;;;;;;4159280;28;20237;-78
2023/07/02 11:06:44;;;;;;;1.10;1.00;;;;;;;;;;4158347;28;20061;-77
2023/07/02 11:09:04;;;;;;;1.10;1.00;;;;;;;;;;4158287;28;20045;-77
2023/07/02 11:11:24;;;;;;;0.90;0.90;;;;;;;;;;4158632;28;20103;-77
2023/07/02 11:13:52;;;;;;;1.40;1.30;;;;;;;;;;4157486;28;20067;-77
2023/07/02 11:16:26;;;;;;;0.90;0.90;;;;;;;;;;4157794;28;20049;-77
2023/07/02 11:18:47;;;;;;;1.80;1.08;;;;;;;;;;4156670;28;20065;-77
2023/07/02 11:21:10;;;;;;;1.10;1.10;;;;;;;;;;4158131;28;20233;-77
2023/07/02 11:23:35;;;;;;;0.90;0.90;;;;;;;;;;4163424;28;20049;-77
2023/07/02 11:25:59;;;;;;;1.08;1.00;;;;;;;;;;4161182;28;20048;-77
2023/07/02 11:28:19;;;;;;;0.90;0.90;;;;;;;;;;4145636;28;20061;-77
2023/07/02 11:30:46;;;;;;;1.33;0.80;;;;;;;;;;4159794;28;20041;-77
2023/07/02 11:33:06;;;;;;;1.35;1.25;;;;;;;;;;4159268;28;20084;-77
2023/07/02 11:35:36;;;;;;;1.00;1.00;;;;;;;;;;4160615;28;20068;-77
2023/07/02 11:37:56;;;;;;;0.90;0.90;;;;;;;;;;4157106;28;20065;-77
2023/07/02 11:40:20;;;;;;;1.00;0.90;;;;;;;;;;4165241;28;20313;-77
2023/07/02 11:42:41;;;;;;;1.58;0.90;;;;;;;;;;4162678;28;20072;-78
2023/07/02 11:45:02;;;;;;;1.13;0.93;;;;;;;;;;4144117;28;20290;-77
2023/07/02 11:47:22;;;;;;;1.00;0.90;;;;;;;;;;4156699;28;20248;-77
2023/07/02 11:49:42;;;;;;;1.05;0.93;;;;;;;;;;4156913;28;20080;-78
2023/07/02 11:52:03;;;;;;;1.38;1.10;;;;;;;;;;4157281;28;20049;-78
2023/07/02 11:54:23;;;;;;;0.90;0.90;;;;;;;;;;4156737;28;20057;-78
2023/07/02 11:56:44;;;;;;;0.90;0.90;;;;;;;;;;4156849;28;20124;-77
2023/07/02 11:59:05;;;;;;;0.80;0.80;;;;;;;;;;4156732;28;20057;-78
2023/07/02 12:01:25;;;;;;;0.90;0.90;;;;;;;;;;4165710;28;20079;-78
2023/07/02 12:03:46;;;;;;;0.90;0.90;;;;;;;;;;4162934;28;20064;-79
2023/07/02 12:06:07;;;;;;;1.75;1.10;;;;;;;;;;4160265;28;20045;-77
2023/07/02 12:08:27;;;;;;;0.93;0.93;;;;;;;;;;4158530;28;20069;-78
2023/07/02 12:10:47;;;;;;;0.90;0.90;;;;;;;;;;4159356;28;20072;-78
2023/07/02 12:13:07;;;;;;;1.55;0.82;;;;;;;;;;4157870;28;20053;-77
2023/07/02 12:15:28;;;;;;;1.25;1.15;;;;;;;;;;4161667;28;20072;-78
2023/07/02 12:17:48;;;;;;;2.10;1.00;;;;;;;;;;4164051;28;20359;-75
2023/07/02 12:20:09;;;;;;;0.90;0.90;;;;;;;;;;4159938;28;20080;-75
2023/07/02 12:22:30;;;;;;;0.90;0.90;;;;;;;;;;4160198;28;20061;-76
2023/07/02 12:24:50;;;;;;;0.88;0.88;;;;;;;;;;4157827;28;20048;-75
2023/07/02 12:27:10;;;;;;;3.22;0.90;;;;;;;;;;4157400;28;20116;-76
2023/07/02 12:29:31;;;;;;;1.58;0.90;;;;;;;;;;4156267;28;20114;-76
2023/07/02 12:31:51;;;;;;;0.88;0.88;;;;;;;;;;4159342;28;20079;-76
2023/07/02 12:34:11;;;;;;;1.77;0.90;;;;;;;;;;4159173;28;20117;-76
2023/07/02 12:36:32;;;;;;;0.80;0.80;;;;;;;;;;4157046;28;20301;-76
2023/07/02 12:38:53;;;;;;;0.80;0.80;;;;;;;;;;4156960;28;20088;-75
2023/07/02 12:41:13;;;;;;;0.80;0.80;;;;;;;;;;4159146;28;20080;-76
2023/07/02 12:43:33;;;;;;;0.80;0.80;;;;;;;;;;4167856;28;20141;-75
2023/07/02 12:45:54;;;;;;;0.85;0.85;;;;;;;;;;4166201;28;20371;-76
2023/07/02 12:48:14;;;;;;;0.90;0.90;;;;;;;;;;4160463;28;20057;-75
2023/07/02 12:50:34;;;;;;;1.38;0.90;;;;;;;;;;4160044;28;20057;-88
2023/07/02 12:52:55;;;;;;;0.88;0.88;;;;;;;;;;4141595;28;20049;-87
2023/07/02 12:55:15;;;;;;;3.13;0.90;;;;;;;;;;4154536;28;20441;-89
2023/07/02 12:57:35;;;;;;;1.88;0.82;;;;;;;;;;4159616;28;20367;-88
2023/07/02 12:59:57;;;;;;;1.55;0.90;;;;;;;;;;4158681;28;20080;-87
2023/07/02 13:02:17;;;;;;;1.27;0.80;;;;;;;;;;4155462;28;20198;-87
2023/07/02 13:04:39;;;;;;;0.85;0.80;;;;;;;;;;4155902;28;20049;-85
2023/07/02 13:06:59;;;;;;;0.70;0.70;;;;;;;;;;4146472;28;20049;-88
2023/07/02 13:09:21;;;;;;;0.90;0.90;;;;;;;;;;4159116;28;20056;-86
2023/07/02 13:11:42;;;;;;;1.00;0.90;;;;;;;;;;4160309;28;20109;-87
2023/07/02 13:14:02;;;;;;;2.05;0.80;;;;;;;;;;4159739;28;20046;-87
2023/07/02 13:16:23;;;;;;;1.75;0.80;;;;;;;;;;4155977;28;20608;-88
2023/07/02 13:18:44;;;;;;;0.95;0.85;;;;;;;;;;4154992;28;20084;-87
2023/07/02 13:21:04;;;;;;;0.77;0.77;;;;;;;;;;4163371;28;20056;-86
2023/07/02 13:23:24;;;;;;;0.77;0.77;;;;;;;;;;4161453;28;20158;-87
2023/07/02 13:25:44;;;;;;;1.30;0.80;;;;;;;;;;4160042;28;20080;-85
2023/07/02 13:28:05;;;;;;;0.85;0.70;;;;;;;;;;4155282;28;20115;-87
2023/07/02 13:30:28;;;;;;;0.80;0.80;;;;;;;;;;4157861;28;20286;-79
2023/07/02 13:32:48;;;;;;;2.45;0.80;;;;;;;;;;4156757;28;20083;-79
2023/07/02 13:35:09;;;;;;;0.73;0.73;;;;;;;;;;4155895;28;20053;-79
2023/07/02 13:37:29;;;;;;;0.70;0.70;;;;;;;;;;4154812;28;20093;-79
2023/07/02 13:39:50;;;;;;;1.65;0.88;;;;;;;;;;4156857;28;20060;-79
2023/07/02 13:42:10;;;;;;;0.90;0.80;;;;;;;;;;4158885;28;20087;-79
2023/07/02 13:44:31;;;;;;;0.80;0.80;;;;;;;;;;4157216;28;20048;-79
2023/07/02 13:46:52;;;;;;;1.52;0.80;;;;;;;;;;4156398;28;20237;-79
2023/07/02 13:49:13;;;;;;;1.05;0.80;;;;;;;;;;4156466;28;20045;-79
2023/07/02 13:51:33;;;;;;;1.00;0.90;;;;;;;;;;4157912;28;20332;-79
2023/07/02 13:53:53;;;;;;;0.70;0.70;;;;;;;;;;4156386;28;20434;-79
2023/07/02 13:56:14;;;;;;;0.80;0.80;;;;;;;;;;4158170;28;20049;-79
2023/07/02 13:58:58;;;;;;;0.80;0.80;;;;;;;;;;4156435;28;20056;-79
2023/07/02 14:01:18;;;;;;;0.90;0.90;;;;;;;;;;4155715;28;20077;-82
2023/07/02 14:03:39;;;;;;;2.15;0.90;;;;;;;;;;4155096;28;20114;-82
2023/07/02 14:05:59;;;;;;;0.80;0.80;;;;;;;;;;4156148;28;20065;-82
2023/07/02 14:08:19;;;;;;;0.90;0.90;;;;;;;;;;4153513;28;20069;-82